NORTHEAST SUFFOLK  -  Special Weather Statement Special Weather Statement        NORTHERN NASSAU  -  Special Weather Statement Special Weather Statement        NORTHWEST SUFFOLK  -  Special Weather Statement Special Weather Statement        SOUTHEAST SUFFOLK  -  Special Weather Statement Special Weather Statement        SOUTHERN NASSAU  -  Special Weather Statement Special Weather Statement        SOUTHWEST SUFFOLK  -  Special Weather Statement Special Weather Statement      

Active alerts

Northern Nassau
  Details for Northern Nassau Special Weather Statement
Southern Nassau
  Details for Southern Nassau Special Weather Statement
Northwest Suffolk
  Details for Northwest Suffolk Special Weather Statement
Southwest Suffolk
  Details for Southwest Suffolk Special Weather Statement
Northeast Suffolk
  Details for Northeast Suffolk Special Weather Statement
Southeast Suffolk
  Details for Southeast Suffolk Special Weather Statement


WXM80 ListenWXM80 Stop

You find our weather info also at:

UK Metoffice

WeatherCloud

Weather Underground

Northeastern Weather Network

AWEKAS

Citizen Weather Observer Program (CWOP)

HAMweather, WeatherForYou, PWS Weather


Weather Underground History page Text

Daily Summary for April 19, 2017 Units:  Both    English   Metric
« Previous Day
Next Day »
Daily Weekly Monthly Yearly Custom
  High: Low: Average:
Temperature: 53.8 °F /  12.1 °C 40.4 °F /  4.7 °C 47 °F /  8.3 °C
Dew Point: 46.2 °F /  7.9 °C 36.6 °F /  2.6 °C 40.8 °F /  4.9 °C
Humidity: 95 % 61 % 80 %
Wind Speed: 9.7 mph /  15.6 km/h - 2.4 mph /  3.9 km/h
Wind Gust: 17.3 mph /  27.8 km/h - -
Wind:- - SE
Pressure: 30.52 in /  1033.4 hPa 30.20 in /  1022.6 hPa -
Precipitation: 0.00 in /  0 mm    
Historical Graphs
 
 
Tabular Data for April 19, 2017
Time Temperature Dew Point Pressure Wind Wind Speed Wind Gust Humidity Rainfall Rate (Hourly)
00:04 45.7 °F /  7.6 °C 40.5 °F /  4.7 °C 30.49 in /  1032.4 hPa SSE 0.4 mph /  0.6 km/h 1.2 mph /  1.9 km/h 82 % 0.00 in /  0 mm
00:05 45.7 °F /  7.6 °C 40.5 °F /  4.7 °C 30.49 in /  1032.4 hPa SSE 0.3 mph /  0.5 km/h 1.2 mph /  1.9 km/h 82 % 0.00 in /  0 mm
00:10 45.6 °F /  7.6 °C 40.4 °F /  4.7 °C 30.50 in /  1032.7 hPa Calm     82 % 0.00 in /  0 mm
00:15 45.5 °F /  7.5 °C 40.3 °F /  4.6 °C 30.50 in /  1032.7 hPa Calm   1.2 mph /  1.9 km/h 82 % 0.00 in /  0 mm
00:20 45.4 °F /  7.4 °C 40.2 °F /  4.6 °C 30.50 in /  1032.7 hPa Calm     82 % 0.00 in /  0 mm
00:25 45.2 °F /  7.3 °C 40.0 °F /  4.4 °C 30.50 in /  1032.7 hPa Calm   1.2 mph /  1.9 km/h 82 % 0.00 in /  0 mm
00:30 45.1 °F /  7.3 °C 39.9 °F /  4.4 °C 30.50 in /  1032.7 hPa Calm     82 % 0.00 in /  0 mm
00:35 45.0 °F /  7.2 °C 39.8 °F /  4.3 °C 30.51 in /  1033.1 hPa Calm     82 % 0.00 in /  0 mm
00:40 44.9 °F /  7.2 °C 40.0 °F /  4.4 °C 30.50 in /  1032.7 hPa SSE 0.6 mph /  1 km/h 1.2 mph /  1.9 km/h 83 % 0.00 in /  0 mm
00:46 44.7 °F /  7.1 °C 39.9 °F /  4.4 °C 30.50 in /  1032.7 hPa SSE 2.0 mph /  3.2 km/h 2.3 mph /  3.7 km/h 83 % 0.00 in /  0 mm
00:51 44.3 °F /  6.8 °C 39.8 °F /  4.3 °C 30.50 in /  1032.7 hPa SSE 1.5 mph /  2.4 km/h 2.3 mph /  3.7 km/h 84 % 0.00 in /  0 mm
00:56 44.1 °F /  6.7 °C 39.6 °F /  4.2 °C 30.51 in /  1033.1 hPa Calm   1.2 mph /  1.9 km/h 84 % 0.00 in /  0 mm
01:01 44.0 °F /  6.7 °C 39.5 °F /  4.2 °C 30.51 in /  1033.1 hPa SSE 0.4 mph /  0.6 km/h 1.0 mph /  1.6 km/h 84 % 0.00 in /  0 mm
01:06 43.9 °F /  6.6 °C 39.7 °F /  4.3 °C 30.51 in /  1033.1 hPa SSE 1.8 mph /  2.9 km/h 2.3 mph /  3.7 km/h 85 % 0.00 in /  0 mm
01:11 43.7 °F /  6.5 °C 39.5 °F /  4.2 °C 30.51 in /  1033.1 hPa ESE 1.5 mph /  2.4 km/h 3.5 mph /  5.6 km/h 85 % 0.00 in /  0 mm
01:16 43.6 °F /  6.4 °C 39.4 °F /  4.1 °C 30.51 in /  1033.1 hPa ESE 1.4 mph /  2.3 km/h 2.3 mph /  3.7 km/h 85 % 0.00 in /  0 mm
01:21 43.4 °F /  6.3 °C 39.2 °F /  4 °C 30.51 in /  1033.1 hPa ESE 1.4 mph /  2.3 km/h 2.3 mph /  3.7 km/h 85 % 0.00 in /  0 mm
01:26 43.4 °F /  6.3 °C 39.5 °F /  4.2 °C 30.50 in /  1032.7 hPa East 1.7 mph /  2.7 km/h 4.6 mph /  7.4 km/h 86 % 0.00 in /  0 mm
01:31 43.5 °F /  6.4 °C 39.6 °F /  4.2 °C 30.50 in /  1032.7 hPa East 1.5 mph /  2.4 km/h 3.5 mph /  5.6 km/h 86 % 0.00 in /  0 mm
01:36 43.6 °F /  6.4 °C 40.0 °F /  4.4 °C 30.51 in /  1033.1 hPa East 0.6 mph /  1 km/h 3.5 mph /  5.6 km/h 87 % 0.00 in /  0 mm
01:41 43.6 °F /  6.4 °C 40.0 °F /  4.4 °C 30.50 in /  1032.7 hPa East 2.3 mph /  3.7 km/h 3.5 mph /  5.6 km/h 87 % 0.00 in /  0 mm
01:46 43.6 °F /  6.4 °C 39.7 °F /  4.3 °C 30.50 in /  1032.7 hPa ESE 2.2 mph /  3.5 km/h 3.5 mph /  5.6 km/h 86 % 0.00 in /  0 mm
01:51 43.6 °F /  6.4 °C 39.7 °F /  4.3 °C 30.50 in /  1032.7 hPa East 2.1 mph /  3.4 km/h 3.5 mph /  5.6 km/h 86 % 0.00 in /  0 mm
01:56 43.5 °F /  6.4 °C 39.6 °F /  4.2 °C 30.50 in /  1032.7 hPa East 3.7 mph /  6 km/h 5.8 mph /  9.3 km/h 86 % 0.00 in /  0 mm
02:01 43.5 °F /  6.4 °C 39.6 °F /  4.2 °C 30.50 in /  1032.7 hPa East 0.3 mph /  0.5 km/h 2.3 mph /  3.7 km/h 86 % 0.00 in /  0 mm
02:06 43.4 °F /  6.3 °C 39.5 °F /  4.2 °C 30.50 in /  1032.7 hPa East 1.7 mph /  2.7 km/h 2.3 mph /  3.7 km/h 86 % 0.00 in /  0 mm
02:11 43.4 °F /  6.3 °C 39.5 °F /  4.2 °C 30.50 in /  1032.7 hPa ESE 0.3 mph /  0.5 km/h 2.3 mph /  3.7 km/h 86 % 0.00 in /  0 mm
02:16 43.3 °F /  6.3 °C 39.1 °F /  3.9 °C 30.50 in /  1032.7 hPa ESE 1.2 mph /  1.9 km/h 3.5 mph /  5.6 km/h 85 % 0.00 in /  0 mm
02:21 43.3 °F /  6.3 °C 39.1 °F /  3.9 °C 30.50 in /  1032.7 hPa ESE 0.8 mph /  1.3 km/h 2.3 mph /  3.7 km/h 85 % 0.00 in /  0 mm
02:26 43.3 °F /  6.3 °C 39.1 °F /  3.9 °C 30.50 in /  1032.7 hPa East 1.2 mph /  1.9 km/h 3.5 mph /  5.6 km/h 85 % 0.00 in /  0 mm
02:31 43.2 °F /  6.2 °C 39.0 °F /  3.9 °C 30.50 in /  1032.7 hPa SE 0.6 mph /  1 km/h 2.3 mph /  3.7 km/h 85 % 0.00 in /  0 mm
02:36 43.2 °F /  6.2 °C 39.0 °F /  3.9 °C 30.49 in /  1032.4 hPa SE 1.2 mph /  1.9 km/h 2.3 mph /  3.7 km/h 85 % 0.00 in /  0 mm
02:41 43.2 °F /  6.2 °C 39.0 °F /  3.9 °C 30.49 in /  1032.4 hPa SE 1.1 mph /  1.8 km/h 2.3 mph /  3.7 km/h 85 % 0.00 in /  0 mm
02:46 43.1 °F /  6.2 °C 38.9 °F /  3.8 °C 30.49 in /  1032.4 hPa Calm   1.0 mph /  1.6 km/h 85 % 0.00 in /  0 mm
02:51 43.1 °F /  6.2 °C 38.6 °F /  3.7 °C 30.49 in /  1032.4 hPa ESE 0.5 mph /  0.8 km/h 1.2 mph /  1.9 km/h 84 % 0.00 in /  0 mm
02:57 43.1 °F /  6.2 °C 38.6 °F /  3.7 °C 30.49 in /  1032.4 hPa SE 0.1 mph /  0.2 km/h 1.2 mph /  1.9 km/h 84 % 0.00 in /  0 mm
03:02 43.0 °F /  6.1 °C 38.5 °F /  3.6 °C 30.49 in /  1032.4 hPa SE 0.6 mph /  1 km/h 2.3 mph /  3.7 km/h 84 % 0.00 in /  0 mm
03:07 43.0 °F /  6.1 °C 38.5 °F /  3.6 °C 30.49 in /  1032.4 hPa SE 0.2 mph /  0.3 km/h 2.3 mph /  3.7 km/h 84 % 0.00 in /  0 mm
03:12 43.0 °F /  6.1 °C 38.5 °F /  3.6 °C 30.49 in /  1032.4 hPa SE 0.2 mph /  0.3 km/h 1.2 mph /  1.9 km/h 84 % 0.00 in /  0 mm
03:17 42.9 °F /  6.1 °C 38.4 °F /  3.6 °C 30.50 in /  1032.7 hPa ESE 0.8 mph /  1.3 km/h 2.0 mph /  3.2 km/h 84 % 0.00 in /  0 mm
03:22 42.8 °F /  6 °C 38.3 °F /  3.5 °C 30.49 in /  1032.4 hPa SE 1.5 mph /  2.4 km/h 5.8 mph /  9.3 km/h 84 % 0.00 in /  0 mm
03:27 42.7 °F /  5.9 °C 38.2 °F /  3.4 °C 30.49 in /  1032.4 hPa ESE 1.3 mph /  2.1 km/h 3.5 mph /  5.6 km/h 84 % 0.00 in /  0 mm
03:32 42.7 °F /  5.9 °C 38.2 °F /  3.4 °C 30.49 in /  1032.4 hPa SE 2.0 mph /  3.2 km/h 5.8 mph /  9.3 km/h 84 % 0.00 in /  0 mm
03:37 42.6 °F /  5.9 °C 38.1 °F /  3.4 °C 30.50 in /  1032.7 hPa SE 1.1 mph /  1.8 km/h 1.2 mph /  1.9 km/h 84 % 0.00 in /  0 mm
03:42 42.5 °F /  5.8 °C 38.0 °F /  3.3 °C 30.50 in /  1032.7 hPa Calm   2.0 mph /  3.2 km/h 84 % 0.00 in /  0 mm
03:47 42.5 °F /  5.8 °C 38.0 °F /  3.3 °C 30.49 in /  1032.4 hPa East 2.3 mph /  3.7 km/h 3.5 mph /  5.6 km/h 84 % 0.00 in /  0 mm
03:52 42.4 °F /  5.8 °C 37.9 °F /  3.3 °C 30.49 in /  1032.4 hPa Calm   3.0 mph /  4.8 km/h 84 % 0.00 in /  0 mm
03:57 42.3 °F /  5.7 °C 37.8 °F /  3.2 °C 30.50 in /  1032.7 hPa Calm   1.2 mph /  1.9 km/h 84 % 0.00 in /  0 mm
04:02 42.2 °F /  5.7 °C 37.7 °F /  3.2 °C 30.50 in /  1032.7 hPa Calm     84 % 0.00 in /  0 mm
04:07 42.1 °F /  5.6 °C 37.6 °F /  3.1 °C 30.50 in /  1032.7 hPa Calm   1.0 mph /  1.6 km/h 84 % 0.00 in /  0 mm
04:12 42.0 °F /  5.6 °C 37.5 °F /  3.1 °C 30.50 in /  1032.7 hPa Calm   1.0 mph /  1.6 km/h 84 % 0.00 in /  0 mm
04:17 41.9 °F /  5.5 °C 37.4 °F /  3 °C 30.50 in /  1032.7 hPa Calm   1.0 mph /  1.6 km/h 84 % 0.00 in /  0 mm
04:22 41.9 °F /  5.5 °C 37.7 °F /  3.2 °C 30.51 in /  1033.1 hPa Calm   2.0 mph /  3.2 km/h 85 % 0.00 in /  0 mm
04:27 41.8 °F /  5.4 °C 37.3 °F /  2.9 °C 30.51 in /  1033.1 hPa Calm     84 % 0.00 in /  0 mm
04:32 41.7 °F /  5.4 °C 37.2 °F /  2.9 °C 30.51 in /  1033.1 hPa Calm     84 % 0.00 in /  0 mm
04:37 41.6 °F /  5.3 °C 37.1 °F /  2.8 °C 30.51 in /  1033.1 hPa Calm     84 % 0.00 in /  0 mm
04:42 41.5 °F /  5.3 °C 37.0 °F /  2.8 °C 30.50 in /  1032.7 hPa East 0.1 mph /  0.2 km/h 1.2 mph /  1.9 km/h 84 % 0.00 in /  0 mm
04:47 41.3 °F /  5.2 °C 37.1 °F /  2.8 °C 30.50 in /  1032.7 hPa Calm     85 % 0.00 in /  0 mm
04:52 41.2 °F /  5.1 °C 37.0 °F /  2.8 °C 30.50 in /  1032.7 hPa Calm     85 % 0.00 in /  0 mm
04:57 41.1 °F /  5.1 °C 37.2 °F /  2.9 °C 30.50 in /  1032.7 hPa East 1.4 mph /  2.3 km/h 2.3 mph /  3.7 km/h 86 % 0.00 in /  0 mm
04:58 41.0 °F /  5 °C 37.1 °F /  2.8 °C 30.50 in /  1032.7 hPa East 1.4 mph /  2.3 km/h 2.3 mph /  3.7 km/h 86 % 0.00 in /  0 mm
05:03 40.9 °F /  4.9 °C 37.0 °F /  2.8 °C 30.50 in /  1032.7 hPa Calm     86 % 0.00 in /  0 mm
05:08 40.7 °F /  4.8 °C 36.8 °F /  2.7 °C 30.50 in /  1032.7 hPa Calm     86 % 0.00 in /  0 mm
05:13 40.6 °F /  4.8 °C 36.7 °F /  2.6 °C 30.50 in /  1032.7 hPa Calm   1.2 mph /  1.9 km/h 86 % 0.00 in /  0 mm
05:18 40.5 °F /  4.7 °C 36.6 °F /  2.6 °C 30.50 in /  1032.7 hPa Calm     86 % 0.00 in /  0 mm
05:23 40.5 °F /  4.7 °C 36.6 °F /  2.6 °C 30.50 in /  1032.7 hPa Calm     86 % 0.00 in /  0 mm
05:28 40.4 °F /  4.7 °C 36.8 °F /  2.7 °C 30.50 in /  1032.7 hPa East 0.2 mph /  0.3 km/h 1.2 mph /  1.9 km/h 87 % 0.00 in /  0 mm
05:33 40.4 °F /  4.7 °C 36.8 °F /  2.7 °C 30.50 in /  1032.7 hPa Calm   1.2 mph /  1.9 km/h 87 % 0.00 in /  0 mm
05:38 40.4 °F /  4.7 °C 36.8 °F /  2.7 °C 30.50 in /  1032.7 hPa Calm     87 % 0.00 in /  0 mm
05:43 40.5 °F /  4.7 °C 36.9 °F /  2.7 °C 30.50 in /  1032.7 hPa Calm   2.3 mph /  3.7 km/h 87 % 0.00 in /  0 mm
05:48 40.6 °F /  4.8 °C 37.0 °F /  2.8 °C 30.50 in /  1032.7 hPa East 0.1 mph /  0.2 km/h 1.2 mph /  1.9 km/h 87 % 0.00 in /  0 mm
05:53 40.7 °F /  4.8 °C 37.4 °F /  3 °C 30.51 in /  1033.1 hPa Calm   1.2 mph /  1.9 km/h 88 % 0.00 in /  0 mm
05:58 40.8 °F /  4.9 °C 37.5 °F /  3.1 °C 30.50 in /  1032.7 hPa East 1.1 mph /  1.8 km/h 2.0 mph /  3.2 km/h 88 % 0.00 in /  0 mm
06:03 41.0 °F /  5 °C 37.7 °F /  3.2 °C 30.50 in /  1032.7 hPa East 2.0 mph /  3.2 km/h 2.3 mph /  3.7 km/h 88 % 0.00 in /  0 mm
06:08 41.2 °F /  5.1 °C 37.9 °F /  3.3 °C 30.50 in /  1032.7 hPa East 1.2 mph /  1.9 km/h 3.5 mph /  5.6 km/h 88 % 0.00 in /  0 mm
06:13 41.4 °F /  5.2 °C 38.1 °F /  3.4 °C 30.50 in /  1032.7 hPa East 1.0 mph /  1.6 km/h 3.0 mph /  4.8 km/h 88 % 0.00 in /  0 mm
06:18 41.6 °F /  5.3 °C 38.0 °F /  3.3 °C 30.50 in /  1032.7 hPa East 0.7 mph /  1.1 km/h 2.0 mph /  3.2 km/h 87 % 0.00 in /  0 mm
06:23 41.7 °F /  5.4 °C 38.1 °F /  3.4 °C 30.50 in /  1032.7 hPa East 1.7 mph /  2.7 km/h 3.5 mph /  5.6 km/h 87 % 0.00 in /  0 mm
06:28 41.9 °F /  5.5 °C 38.0 °F /  3.3 °C 30.50 in /  1032.7 hPa East 2.1 mph /  3.4 km/h 3.5 mph /  5.6 km/h 86 % 0.00 in /  0 mm
06:33 42.1 °F /  5.6 °C 38.2 °F /  3.4 °C 30.50 in /  1032.7 hPa East 0.4 mph /  0.6 km/h 1.2 mph /  1.9 km/h 86 % 0.00 in /  0 mm
06:38 42.2 °F /  5.7 °C 38.3 °F /  3.5 °C 30.51 in /  1033.1 hPa East 0.4 mph /  0.6 km/h 3.5 mph /  5.6 km/h 86 % 0.00 in /  0 mm
06:43 42.4 °F /  5.8 °C 38.5 °F /  3.6 °C 30.50 in /  1032.7 hPa East 1.1 mph /  1.8 km/h 2.3 mph /  3.7 km/h 86 % 0.00 in /  0 mm
06:48 42.5 °F /  5.8 °C 38.3 °F /  3.5 °C 30.50 in /  1032.7 hPa East 2.5 mph /  4 km/h 2.5 mph /  4 km/h 85 % 0.00 in /  0 mm
06:49 42.6 °F /  5.9 °C 38.4 °F /  3.6 °C 30.50 in /  1032.7 hPa Calm   1.2 mph /  1.9 km/h 85 % 0.00 in /  0 mm
06:55 42.7 °F /  5.9 °C 38.5 °F /  3.6 °C 30.50 in /  1032.7 hPa East 1.6 mph /  2.6 km/h 2.3 mph /  3.7 km/h 85 % 0.00 in /  0 mm
07:00 42.8 °F /  6 °C 38.6 °F /  3.7 °C 30.50 in /  1032.7 hPa East 0.8 mph /  1.3 km/h 3.5 mph /  5.6 km/h 85 % 0.00 in /  0 mm
07:05 42.9 °F /  6.1 °C 38.7 °F /  3.7 °C 30.51 in /  1033.1 hPa East 0.2 mph /  0.3 km/h 1.0 mph /  1.6 km/h 85 % 0.00 in /  0 mm
07:10 43.0 °F /  6.1 °C 38.8 °F /  3.8 °C 30.51 in /  1033.1 hPa East 0.9 mph /  1.4 km/h 2.3 mph /  3.7 km/h 85 % 0.00 in /  0 mm
07:15 43.2 °F /  6.2 °C 39.0 °F /  3.9 °C 30.52 in /  1033.4 hPa East 1.3 mph /  2.1 km/h 2.3 mph /  3.7 km/h 85 % 0.00 in /  0 mm
07:20 43.4 °F /  6.3 °C 38.9 °F /  3.8 °C 30.51 in /  1033.1 hPa East 2.3 mph /  3.7 km/h 3.5 mph /  5.6 km/h 84 % 0.00 in /  0 mm
07:25 43.7 °F /  6.5 °C 39.2 °F /  4 °C 30.51 in /  1033.1 hPa East 0.3 mph /  0.5 km/h 3.5 mph /  5.6 km/h 84 % 0.00 in /  0 mm
07:30 43.9 °F /  6.6 °C 39.1 °F /  3.9 °C 30.52 in /  1033.4 hPa East 2.4 mph /  3.9 km/h 4.6 mph /  7.4 km/h 83 % 0.00 in /  0 mm
07:35 44.1 °F /  6.7 °C 39.3 °F /  4.1 °C 30.52 in /  1033.4 hPa ESE 0.4 mph /  0.6 km/h 2.3 mph /  3.7 km/h 83 % 0.00 in /  0 mm
07:40 44.3 °F /  6.8 °C 39.2 °F /  4 °C 30.52 in /  1033.4 hPa East 2.2 mph /  3.5 km/h 5.0 mph /  8 km/h 82 % 0.00 in /  0 mm
07:45 44.6 °F /  7 °C 39.1 °F /  3.9 °C 30.51 in /  1033.1 hPa ESE 2.7 mph /  4.3 km/h 4.6 mph /  7.4 km/h 81 % 0.00 in /  0 mm
07:50 44.7 °F /  7.1 °C 39.2 °F /  4 °C 30.51 in /  1033.1 hPa SE 1.1 mph /  1.8 km/h 3.0 mph /  4.8 km/h 81 % 0.00 in /  0 mm
07:55 44.9 °F /  7.2 °C 39.1 °F /  3.9 °C 30.51 in /  1033.1 hPa East 3.0 mph /  4.8 km/h 7.0 mph /  11.3 km/h 80 % 0.00 in /  0 mm
08:00 45.2 °F /  7.3 °C 39.1 °F /  3.9 °C 30.51 in /  1033.1 hPa SE 2.8 mph /  4.5 km/h 6.9 mph /  11.1 km/h 79 % 0.00 in /  0 mm
08:05 45.4 °F /  7.4 °C 38.9 °F /  3.8 °C 30.50 in /  1032.7 hPa SE 4.0 mph /  6.4 km/h 9.2 mph /  14.8 km/h 78 % 0.00 in /  0 mm
08:10 45.6 °F /  7.6 °C 39.1 °F /  3.9 °C 30.50 in /  1032.7 hPa ESE 3.9 mph /  6.3 km/h 8.1 mph /  13 km/h 78 % 0.00 in /  0 mm
08:15 45.6 °F /  7.6 °C 38.8 °F /  3.8 °C 30.50 in /  1032.7 hPa East 3.5 mph /  5.6 km/h 9.2 mph /  14.8 km/h 77 % 0.00 in /  0 mm
08:20 45.6 °F /  7.6 °C 38.8 °F /  3.8 °C 30.50 in /  1032.7 hPa South 3.6 mph /  5.8 km/h 8.1 mph /  13 km/h 77 % 0.00 in /  0 mm
08:25 45.7 °F /  7.6 °C 38.9 °F /  3.8 °C 30.50 in /  1032.7 hPa SE 2.3 mph /  3.7 km/h 5.0 mph /  8 km/h 77 % 0.00 in /  0 mm
08:30 45.9 °F /  7.7 °C 39.4 °F /  4.1 °C 30.50 in /  1032.7 hPa SE 2.6 mph /  4.2 km/h 4.6 mph /  7.4 km/h 78 % 0.00 in /  0 mm
08:35 46.2 °F /  7.9 °C 39.4 °F /  4.1 °C 30.50 in /  1032.7 hPa ESE 2.1 mph /  3.4 km/h 3.5 mph /  5.6 km/h 77 % 0.00 in /  0 mm
08:40 46.5 °F /  8.1 °C 39.7 °F /  4.3 °C 30.50 in /  1032.7 hPa SSE 3.7 mph /  6 km/h 5.8 mph /  9.3 km/h 77 % 0.00 in /  0 mm
08:45 46.6 °F /  8.1 °C 39.1 °F /  3.9 °C 30.50 in /  1032.7 hPa SSE 3.3 mph /  5.3 km/h 6.9 mph /  11.1 km/h 75 % 0.00 in /  0 mm
08:50 46.8 °F /  8.2 °C 39.6 °F /  4.2 °C 30.50 in /  1032.7 hPa East 2.2 mph /  3.5 km/h 4.6 mph /  7.4 km/h 76 % 0.00 in /  0 mm
08:56 47.0 °F /  8.3 °C 39.5 °F /  4.2 °C 30.50 in /  1032.7 hPa SSE 4.9 mph /  7.9 km/h 8.0 mph /  12.9 km/h 75 % 0.00 in /  0 mm
09:01 47.2 °F /  8.4 °C 39.7 °F /  4.3 °C 30.50 in /  1032.7 hPa SSE 2.4 mph /  3.9 km/h 6.9 mph /  11.1 km/h 75 % 0.00 in /  0 mm
09:06 47.6 °F /  8.7 °C 40.1 °F /  4.5 °C 30.49 in /  1032.4 hPa SE 4.3 mph /  6.9 km/h 8.0 mph /  12.9 km/h 75 % 0.00 in /  0 mm
09:16 48.3 °F /  9.1 °C 40.0 °F /  4.4 °C 30.49 in /  1032.4 hPa South 5.6 mph /  9 km/h 9.2 mph /  14.8 km/h 73 % 0.00 in /  0 mm
09:21 48.5 °F /  9.2 °C 39.9 °F /  4.4 °C 30.49 in /  1032.4 hPa ESE 3.7 mph /  6 km/h 5.8 mph /  9.3 km/h 72 % 0.00 in /  0 mm
09:26 48.6 °F /  9.2 °C 40.0 °F /  4.4 °C 30.49 in /  1032.4 hPa SE 3.6 mph /  5.8 km/h 4.6 mph /  7.4 km/h 72 % 0.00 in /  0 mm
09:31 49.2 °F /  9.6 °C 40.2 °F /  4.6 °C 30.49 in /  1032.4 hPa SSE 8.7 mph /  14 km/h 11.5 mph /  18.5 km/h 71 % 0.00 in /  0 mm
09:36 49.8 °F /  9.9 °C 41.1 °F /  5.1 °C 30.49 in /  1032.4 hPa SSE 3.4 mph /  5.5 km/h 6.9 mph /  11.1 km/h 72 % 0.00 in /  0 mm
09:41 50.4 °F /  10.2 °C 40.6 °F /  4.8 °C 30.49 in /  1032.4 hPa SSE 6.3 mph /  10.1 km/h 9.2 mph /  14.8 km/h 69 % 0.00 in /  0 mm
09:46 50.1 °F /  10.1 °C 39.6 °F /  4.2 °C 30.48 in /  1032.1 hPa SE 5.2 mph /  8.4 km/h 9.2 mph /  14.8 km/h 67 % 0.00 in /  0 mm
09:51 49.7 °F /  9.8 °C 39.9 °F /  4.4 °C 30.48 in /  1032.1 hPa SE 2.6 mph /  4.2 km/h 6.9 mph /  11.1 km/h 69 % 0.00 in /  0 mm
09:56 49.8 °F /  9.9 °C 39.7 °F /  4.3 °C 30.48 in /  1032.1 hPa SE 8.5 mph /  13.7 km/h 13.8 mph /  22.2 km/h 68 % 0.00 in /  0 mm
10:01 49.5 °F /  9.7 °C 39.7 °F /  4.3 °C 30.48 in /  1032.1 hPa South 4.0 mph /  6.4 km/h 6.9 mph /  11.1 km/h 69 % 0.00 in /  0 mm
10:06 49.2 °F /  9.6 °C 39.1 °F /  3.9 °C 30.48 in /  1032.1 hPa SE 2.8 mph /  4.5 km/h 6.9 mph /  11.1 km/h 68 % 0.00 in /  0 mm
10:11 49.6 °F /  9.8 °C 40.2 °F /  4.6 °C 30.49 in /  1032.4 hPa SSE 4.8 mph /  7.7 km/h 9.2 mph /  14.8 km/h 70 % 0.00 in /  0 mm
10:16 49.7 °F /  9.8 °C 39.2 °F /  4 °C 30.49 in /  1032.4 hPa South 5.4 mph /  8.7 km/h 11.5 mph /  18.5 km/h 67 % 0.00 in /  0 mm
10:21 49.7 °F /  9.8 °C 39.6 °F /  4.2 °C 30.49 in /  1032.4 hPa SE 6.0 mph /  9.7 km/h 9.2 mph /  14.8 km/h 68 % 0.00 in /  0 mm
10:26 49.7 °F /  9.8 °C 40.3 °F /  4.6 °C 30.49 in /  1032.4 hPa SSE 1.3 mph /  2.1 km/h 4.0 mph /  6.4 km/h 70 % 0.00 in /  0 mm
10:31 49.7 °F /  9.8 °C 39.2 °F /  4 °C 30.49 in /  1032.4 hPa South 3.1 mph /  5 km/h 5.8 mph /  9.3 km/h 67 % 0.00 in /  0 mm
10:36 49.5 °F /  9.7 °C 39.4 °F /  4.1 °C 30.48 in /  1032.1 hPa South 5.4 mph /  8.7 km/h 10.4 mph /  16.7 km/h 68 % 0.00 in /  0 mm
10:41 49.4 °F /  9.7 °C 39.7 °F /  4.3 °C 30.48 in /  1032.1 hPa South 3.0 mph /  4.8 km/h 5.8 mph /  9.3 km/h 69 % 0.00 in /  0 mm
10:46 50.2 °F /  10.1 °C 40.4 °F /  4.7 °C 30.48 in /  1032.1 hPa South 4.0 mph /  6.4 km/h 11.5 mph /  18.5 km/h 69 % 0.00 in /  0 mm
10:51 50.4 °F /  10.2 °C 40.2 °F /  4.6 °C 30.48 in /  1032.1 hPa SSE 6.3 mph /  10.1 km/h 9.2 mph /  14.8 km/h 68 % 0.00 in /  0 mm
10:56 50.5 °F /  10.3 °C 39.6 °F /  4.2 °C 30.48 in /  1032.1 hPa SSW 1.4 mph /  2.3 km/h 5.8 mph /  9.3 km/h 66 % 0.00 in /  0 mm
11:02 51.2 °F /  10.7 °C 39.8 °F /  4.3 °C 30.47 in /  1031.7 hPa SSE 5.7 mph /  9.2 km/h 10.4 mph /  16.7 km/h 65 % 0.00 in /  0 mm
11:07 51.5 °F /  10.8 °C 40.9 °F /  4.9 °C 30.47 in /  1031.7 hPa SE 3.7 mph /  6 km/h 8.1 mph /  13 km/h 67 % 0.00 in /  0 mm
11:12 52.0 °F /  11.1 °C 39.8 °F /  4.3 °C 30.47 in /  1031.7 hPa East 8.1 mph /  13 km/h 13.8 mph /  22.2 km/h 63 % 0.00 in /  0 mm
11:17 51.8 °F /  11 °C 39.2 °F /  4 °C 30.47 in /  1031.7 hPa SSE 4.5 mph /  7.2 km/h 9.2 mph /  14.8 km/h 62 % 0.00 in /  0 mm
11:22 51.3 °F /  10.7 °C 39.5 °F /  4.2 °C 30.47 in /  1031.7 hPa South 4.8 mph /  7.7 km/h 9.2 mph /  14.8 km/h 64 % 0.00 in /  0 mm
11:27 51.9 °F /  11.1 °C 40.5 °F /  4.7 °C 30.47 in /  1031.7 hPa SSW 2.5 mph /  4 km/h 6.9 mph /  11.1 km/h 65 % 0.00 in /  0 mm
11:32 52.4 °F /  11.3 °C 40.2 °F /  4.6 °C 30.47 in /  1031.7 hPa South 6.1 mph /  9.8 km/h 11.5 mph /  18.5 km/h 63 % 0.00 in /  0 mm
11:42 53.4 °F /  11.9 °C 41.5 °F /  5.3 °C 30.46 in /  1031.4 hPa SSE 9.7 mph /  15.6 km/h 17.3 mph /  27.8 km/h 64 % 0.00 in /  0 mm
11:47 53.5 °F /  11.9 °C 40.8 °F /  4.9 °C 30.47 in /  1031.7 hPa SSE 3.0 mph /  4.8 km/h 5.0 mph /  8 km/h 62 % 0.00 in /  0 mm
11:52 53.3 °F /  11.8 °C 40.6 °F /  4.8 °C 30.47 in /  1031.7 hPa SSW 3.7 mph /  6 km/h 6.0 mph /  9.7 km/h 62 % 0.00 in /  0 mm
11:57 52.7 °F /  11.5 °C 39.6 °F /  4.2 °C 30.46 in /  1031.4 hPa SSW 2.7 mph /  4.3 km/h 6.9 mph /  11.1 km/h 61 % 0.00 in /  0 mm
12:02 52.0 °F /  11.1 °C 39.8 °F /  4.3 °C 30.46 in /  1031.4 hPa ESE 5.0 mph /  8 km/h 9.2 mph /  14.8 km/h 63 % 0.00 in /  0 mm
12:07 51.7 °F /  10.9 °C 40.3 °F /  4.6 °C 30.45 in /  1031 hPa SSW 1.2 mph /  1.9 km/h 4.6 mph /  7.4 km/h 65 % 0.00 in /  0 mm
12:12 51.3 °F /  10.7 °C 39.1 °F /  3.9 °C 30.45 in /  1031 hPa South 5.6 mph /  9 km/h 11.5 mph /  18.5 km/h 63 % 0.00 in /  0 mm
12:17 50.6 °F /  10.3 °C 39.7 °F /  4.3 °C 30.45 in /  1031 hPa South 3.8 mph /  6.1 km/h 6.9 mph /  11.1 km/h 66 % 0.00 in /  0 mm
12:22 51.0 °F /  10.6 °C 40.8 °F /  4.9 °C 30.45 in /  1031 hPa South 2.0 mph /  3.2 km/h 9.0 mph /  14.5 km/h 68 % 0.00 in /  0 mm
12:27 51.0 °F /  10.6 °C 40.0 °F /  4.4 °C 30.45 in /  1031 hPa South 5.0 mph /  8 km/h 12.0 mph /  19.3 km/h 66 % 0.00 in /  0 mm
12:29 51.0 °F /  10.6 °C 40.0 °F /  4.4 °C 30.44 in /  1030.7 hPa South 1.8 mph /  2.9 km/h 5.8 mph /  9.3 km/h 66 % 0.00 in /  0 mm
12:34 50.6 °F /  10.3 °C 38.9 °F /  3.8 °C 30.44 in /  1030.7 hPa SE 4.9 mph /  7.9 km/h 11.5 mph /  18.5 km/h 64 % 0.00 in /  0 mm
12:39 50.3 °F /  10.2 °C 39.0 °F /  3.9 °C 30.44 in /  1030.7 hPa SSW 4.9 mph /  7.9 km/h 11.5 mph /  18.5 km/h 65 % 0.00 in /  0 mm
12:44 50.3 °F /  10.2 °C 40.5 °F /  4.7 °C 30.44 in /  1030.7 hPa South 3.3 mph /  5.3 km/h 9.2 mph /  14.8 km/h 69 % 0.00 in /  0 mm
12:49 50.5 °F /  10.3 °C 40.3 °F /  4.6 °C 30.44 in /  1030.7 hPa SE 4.8 mph /  7.7 km/h 10.0 mph /  16.1 km/h 68 % 0.00 in /  0 mm
12:54 50.6 °F /  10.3 °C 40.0 °F /  4.4 °C 30.44 in /  1030.7 hPa SE 3.4 mph /  5.5 km/h 6.9 mph /  11.1 km/h 67 % 0.00 in /  0 mm
12:59 50.7 °F /  10.4 °C 40.1 °F /  4.5 °C 30.43 in /  1030.4 hPa SSE 5.9 mph /  9.5 km/h 10.4 mph /  16.7 km/h 67 % 0.00 in /  0 mm
13:04 50.6 °F /  10.3 °C 40.8 °F /  4.9 °C 30.44 in /  1030.7 hPa SSE 1.8 mph /  2.9 km/h 8.1 mph /  13 km/h 69 % 0.00 in /  0 mm
13:09 51.0 °F /  10.6 °C 41.9 °F /  5.5 °C 30.43 in /  1030.4 hPa South 2.3 mph /  3.7 km/h 4.6 mph /  7.4 km/h 71 % 0.00 in /  0 mm
13:14 51.5 °F /  10.8 °C 40.9 °F /  4.9 °C 30.42 in /  1030 hPa SE 6.6 mph /  10.6 km/h 10.4 mph /  16.7 km/h 67 % 0.00 in /  0 mm
13:19 51.5 °F /  10.8 °C 40.5 °F /  4.7 °C 30.42 in /  1030 hPa SE 5.7 mph /  9.2 km/h 9.0 mph /  14.5 km/h 66 % 0.00 in /  0 mm
13:24 51.4 °F /  10.8 °C 41.2 °F /  5.1 °C 30.42 in /  1030 hPa SSE 7.1 mph /  11.4 km/h 12.7 mph /  20.4 km/h 68 % 0.00 in /  0 mm
13:29 51.4 °F /  10.8 °C 40.4 °F /  4.7 °C 30.41 in /  1029.7 hPa SSE 7.7 mph /  12.4 km/h 11.5 mph /  18.5 km/h 66 % 0.00 in /  0 mm
13:34 51.1 °F /  10.6 °C 40.5 °F /  4.7 °C 30.41 in /  1029.7 hPa ESE 8.5 mph /  13.7 km/h 16.1 mph /  25.9 km/h 67 % 0.00 in /  0 mm
13:39 51.0 °F /  10.6 °C 40.4 °F /  4.7 °C 30.41 in /  1029.7 hPa SSE 7.4 mph /  11.9 km/h 15.0 mph /  24.1 km/h 67 % 0.00 in /  0 mm
13:44 51.1 °F /  10.6 °C 41.7 °F /  5.4 °C 30.41 in /  1029.7 hPa SSE 3.8 mph /  6.1 km/h 5.0 mph /  8 km/h 70 % 0.00 in /  0 mm
13:49 51.4 °F /  10.8 °C 41.6 °F /  5.3 °C 30.41 in /  1029.7 hPa SE 6.1 mph /  9.8 km/h 11.5 mph /  18.5 km/h 69 % 0.00 in /  0 mm
13:54 51.7 °F /  10.9 °C 41.5 °F /  5.3 °C 30.41 in /  1029.7 hPa SSE 2.4 mph /  3.9 km/h 5.8 mph /  9.3 km/h 68 % 0.00 in /  0 mm
13:59 51.8 °F /  11 °C 41.2 °F /  5.1 °C 30.41 in /  1029.7 hPa South 4.3 mph /  6.9 km/h 6.9 mph /  11.1 km/h 67 % 0.00 in /  0 mm
14:05 52.0 °F /  11.1 °C 42.1 °F /  5.6 °C 30.41 in /  1029.7 hPa SSW 6.9 mph /  11.1 km/h 10.0 mph /  16.1 km/h 69 % 0.00 in /  0 mm
14:09 52.1 °F /  11.2 °C 41.9 °F /  5.5 °C 30.40 in /  1029.3 hPa SSE 4.7 mph /  7.6 km/h 10.4 mph /  16.7 km/h 68 % 0.00 in /  0 mm
14:15 52.2 °F /  11.2 °C 41.6 °F /  5.3 °C 30.39 in /  1029 hPa East 6.5 mph /  10.5 km/h 11.0 mph /  17.7 km/h 67 % 0.00 in /  0 mm
14:25 52.3 °F /  11.3 °C 41.7 °F /  5.4 °C 30.39 in /  1029 hPa SE 3.0 mph /  4.8 km/h 5.8 mph /  9.3 km/h 67 % 0.00 in /  0 mm
14:30 52.6 °F /  11.4 °C 42.3 °F /  5.7 °C 30.39 in /  1029 hPa SSE 5.7 mph /  9.2 km/h 10.0 mph /  16.1 km/h 68 % 0.00 in /  0 mm
14:35 53.2 °F /  11.8 °C 42.1 °F /  5.6 °C 30.39 in /  1029 hPa South 3.8 mph /  6.1 km/h 8.1 mph /  13 km/h 66 % 0.00 in /  0 mm
14:40 53.5 °F /  11.9 °C 42.4 °F /  5.8 °C 30.38 in /  1028.7 hPa South 6.1 mph /  9.8 km/h 6.9 mph /  11.1 km/h 66 % 0.00 in /  0 mm
14:45 53.0 °F /  11.7 °C 41.9 °F /  5.5 °C 30.38 in /  1028.7 hPa SSE 2.1 mph /  3.4 km/h 6.9 mph /  11.1 km/h 66 % 0.00 in /  0 mm
14:50 53.3 °F /  11.8 °C 43.0 °F /  6.1 °C 30.38 in /  1028.7 hPa SSE 7.5 mph /  12.1 km/h 13.0 mph /  20.9 km/h 68 % 0.00 in /  0 mm
14:55 53.6 °F /  12 °C 42.5 °F /  5.8 °C 30.37 in /  1028.3 hPa South 5.9 mph /  9.5 km/h 9.2 mph /  14.8 km/h 66 % 0.00 in /  0 mm
15:00 53.6 °F /  12 °C 42.1 °F /  5.6 °C 30.36 in /  1028 hPa SSE 2.7 mph /  4.3 km/h 5.0 mph /  8 km/h 65 % 0.00 in /  0 mm
15:02 53.6 °F /  12 °C 42.1 °F /  5.6 °C 30.36 in /  1028 hPa SSW 2.8 mph /  4.5 km/h 6.9 mph /  11.1 km/h 65 % 0.00 in /  0 mm
15:07 53.8 °F /  12.1 °C 42.3 °F /  5.7 °C 30.37 in /  1028.3 hPa SSE 2.6 mph /  4.2 km/h 8.1 mph /  13 km/h 65 % 0.00 in /  0 mm
15:12 53.7 °F /  12.1 °C 41.8 °F /  5.4 °C 30.36 in /  1028 hPa SSE 6.2 mph /  10 km/h 6.9 mph /  11.1 km/h 64 % 0.00 in /  0 mm
15:17 53.5 °F /  11.9 °C 41.2 °F /  5.1 °C 30.37 in /  1028.3 hPa South 5.2 mph /  8.4 km/h 10.4 mph /  16.7 km/h 63 % 0.00 in /  0 mm
15:22 53.3 °F /  11.8 °C 41.4 °F /  5.2 °C 30.37 in /  1028.3 hPa SSW 3.7 mph /  6 km/h 7.0 mph /  11.3 km/h 64 % 0.00 in /  0 mm
15:27 53.4 °F /  11.9 °C 41.9 °F /  5.5 °C 30.36 in /  1028 hPa South 5.4 mph /  8.7 km/h 10.4 mph /  16.7 km/h 65 % 0.00 in /  0 mm
15:32 53.2 °F /  11.8 °C 41.7 °F /  5.4 °C 30.36 in /  1028 hPa SSE 3.7 mph /  6 km/h 8.1 mph /  13 km/h 65 % 0.00 in /  0 mm
15:37 52.6 °F /  11.4 °C 41.2 °F /  5.1 °C 30.35 in /  1027.7 hPa SSE 6.7 mph /  10.8 km/h 8.1 mph /  13 km/h 65 % 0.00 in /  0 mm
15:42 52.3 °F /  11.3 °C 41.3 °F /  5.2 °C 30.35 in /  1027.7 hPa SSW 2.1 mph /  3.4 km/h 7.0 mph /  11.3 km/h 66 % 0.00 in /  0 mm
15:47 52.3 °F /  11.3 °C 41.3 °F /  5.2 °C 30.35 in /  1027.7 hPa SSW 3.0 mph /  4.8 km/h 11.5 mph /  18.5 km/h 66 % 0.00 in /  0 mm
15:52 52.2 °F /  11.2 °C 41.6 °F /  5.3 °C 30.35 in /  1027.7 hPa SSW 1.5 mph /  2.4 km/h 2.3 mph /  3.7 km/h 67 % 0.00 in /  0 mm
15:57 51.9 °F /  11.1 °C 41.3 °F /  5.2 °C 30.35 in /  1027.7 hPa SE 3.3 mph /  5.3 km/h 9.0 mph /  14.5 km/h 67 % 0.00 in /  0 mm
16:02 51.5 °F /  10.8 °C 41.3 °F /  5.2 °C 30.35 in /  1027.7 hPa SSW 3.0 mph /  4.8 km/h 10.4 mph /  16.7 km/h 68 % 0.00 in /  0 mm
16:07 51.5 °F /  10.8 °C 41.6 °F /  5.3 °C 30.34 in /  1027.3 hPa SSE 3.0 mph /  4.8 km/h 10.0 mph /  16.1 km/h 69 % 0.00 in /  0 mm
16:12 51.4 °F /  10.8 °C 41.9 °F /  5.5 °C 30.33 in /  1027 hPa SE 7.0 mph /  11.3 km/h 12.0 mph /  19.3 km/h 70 % 0.00 in /  0 mm
16:17 51.2 °F /  10.7 °C 41.7 °F /  5.4 °C 30.34 in /  1027.3 hPa SSE 2.0 mph /  3.2 km/h 13.0 mph /  20.9 km/h 70 % 0.00 in /  0 mm
16:22 51.3 °F /  10.7 °C 41.8 °F /  5.4 °C 30.34 in /  1027.3 hPa SSE 8.0 mph /  12.9 km/h 13.0 mph /  20.9 km/h 70 % 0.00 in /  0 mm
16:27 51.1 °F /  10.6 °C 41.2 °F /  5.1 °C 30.34 in /  1027.3 hPa SSE 5.0 mph /  8 km/h 10.0 mph /  16.1 km/h 69 % 0.00 in /  0 mm
16:32 50.9 °F /  10.5 °C 41.4 °F /  5.2 °C 30.34 in /  1027.3 hPa South 6.0 mph /  9.7 km/h 9.0 mph /  14.5 km/h 70 % 0.00 in /  0 mm
16:37 50.6 °F /  10.3 °C 41.5 °F /  5.3 °C 30.34 in /  1027.3 hPa SSE 2.0 mph /  3.2 km/h 6.0 mph /  9.7 km/h 71 % 0.00 in /  0 mm
16:42 50.6 °F /  10.3 °C 41.2 °F /  5.1 °C 30.34 in /  1027.3 hPa South 2.0 mph /  3.2 km/h 8.0 mph /  12.9 km/h 70 % 0.00 in /  0 mm
16:47 50.6 °F /  10.3 °C 41.2 °F /  5.1 °C 30.34 in /  1027.3 hPa South 2.0 mph /  3.2 km/h 6.0 mph /  9.7 km/h 70 % 0.00 in /  0 mm
16:52 50.6 °F /  10.3 °C 41.2 °F /  5.1 °C 30.34 in /  1027.3 hPa SSE 2.0 mph /  3.2 km/h 10.0 mph /  16.1 km/h 70 % 0.00 in /  0 mm
16:57 50.4 °F /  10.2 °C 41.0 °F /  5 °C 30.34 in /  1027.3 hPa SE 4.4 mph /  7.1 km/h 11.5 mph /  18.5 km/h 70 % 0.00 in /  0 mm
17:02 50.2 °F /  10.1 °C 41.2 °F /  5.1 °C 30.34 in /  1027.3 hPa SE 2.6 mph /  4.2 km/h 5.8 mph /  9.3 km/h 71 % 0.00 in /  0 mm
17:07 49.9 °F /  9.9 °C 40.9 °F /  4.9 °C 30.33 in /  1027 hPa SSE 5.7 mph /  9.2 km/h 9.2 mph /  14.8 km/h 71 % 0.00 in /  0 mm
17:12 49.5 °F /  9.7 °C 40.8 °F /  4.9 °C 30.33 in /  1027 hPa SSW 3.3 mph /  5.3 km/h 6.9 mph /  11.1 km/h 72 % 0.00 in /  0 mm
17:17 49.4 °F /  9.7 °C 41.1 °F /  5.1 °C 30.33 in /  1027 hPa ESE 4.3 mph /  6.9 km/h 6.9 mph /  11.1 km/h 73 % 0.00 in /  0 mm
17:22 49.1 °F /  9.5 °C 41.2 °F /  5.1 °C 30.33 in /  1027 hPa SE 4.1 mph /  6.6 km/h 5.8 mph /  9.3 km/h 74 % 0.00 in /  0 mm
17:27 49.0 °F /  9.4 °C 41.1 °F /  5.1 °C 30.33 in /  1027 hPa SSE 5.5 mph /  8.9 km/h 8.1 mph /  13 km/h 74 % 0.00 in /  0 mm
17:32 48.8 °F /  9.3 °C 41.2 °F /  5.1 °C 30.33 in /  1027 hPa SSE 2.7 mph /  4.3 km/h 5.8 mph /  9.3 km/h 75 % 0.00 in /  0 mm
17:37 48.7 °F /  9.3 °C 41.1 °F /  5.1 °C 30.34 in /  1027.3 hPa SSE 3.4 mph /  5.5 km/h 6.0 mph /  9.7 km/h 75 % 0.00 in /  0 mm
17:42 48.7 °F /  9.3 °C 41.5 °F /  5.3 °C 30.33 in /  1027 hPa SSE 5.3 mph /  8.5 km/h 8.0 mph /  12.9 km/h 76 % 0.00 in /  0 mm
17:47 48.6 °F /  9.2 °C 42.0 °F /  5.6 °C 30.33 in /  1027 hPa SE 2.0 mph /  3.2 km/h 5.0 mph /  8 km/h 78 % 0.00 in /  0 mm
17:52 48.5 °F /  9.2 °C 42.0 °F /  5.6 °C 30.34 in /  1027.3 hPa SSE 3.2 mph /  5.1 km/h 6.9 mph /  11.1 km/h 78 % 0.00 in /  0 mm
17:57 48.4 °F /  9.1 °C 42.2 °F /  5.7 °C 30.34 in /  1027.3 hPa SE 2.7 mph /  4.3 km/h 6.9 mph /  11.1 km/h 79 % 0.00 in /  0 mm
18:02 48.2 °F /  9 °C 42.3 °F /  5.7 °C 30.34 in /  1027.3 hPa SSE 4.5 mph /  7.2 km/h 5.0 mph /  8 km/h 80 % 0.00 in /  0 mm
18:07 47.9 °F /  8.8 °C 42.3 °F /  5.7 °C 30.34 in /  1027.3 hPa SE 3.8 mph /  6.1 km/h 5.8 mph /  9.3 km/h 81 % 0.00 in /  0 mm
18:12 47.8 °F /  8.8 °C 42.9 °F /  6.1 °C 30.33 in /  1027 hPa SE 3.5 mph /  5.6 km/h 5.8 mph /  9.3 km/h 83 % 0.00 in /  0 mm
18:17 47.5 °F /  8.6 °C 42.6 °F /  5.9 °C 30.33 in /  1027 hPa SE 2.8 mph /  4.5 km/h 5.0 mph /  8 km/h 83 % 0.01 in /  0.25 mm
18:22 47.4 °F /  8.6 °C 42.8 °F /  6 °C 30.33 in /  1027 hPa SSE 4.0 mph /  6.4 km/h 8.1 mph /  13 km/h 84 % 0.01 in /  0.25 mm
18:27 47.2 °F /  8.4 °C 42.6 °F /  5.9 °C 30.32 in /  1026.6 hPa SE 2.5 mph /  4 km/h 3.5 mph /  5.6 km/h 84 % 0.01 in /  0.25 mm
18:32 47.1 °F /  8.4 °C 42.8 °F /  6 °C 30.31 in /  1026.3 hPa SSE 2.3 mph /  3.7 km/h 5.8 mph /  9.3 km/h 85 % 0.01 in /  0.25 mm
18:37 47.0 °F /  8.3 °C 42.7 °F /  5.9 °C 30.31 in /  1026.3 hPa SE 1.8 mph /  2.9 km/h 5.8 mph /  9.3 km/h 85 % 0.01 in /  0.25 mm
18:42 46.9 °F /  8.3 °C 42.6 °F /  5.9 °C 30.31 in /  1026.3 hPa SE 2.1 mph /  3.4 km/h 3.5 mph /  5.6 km/h 85 % 0.01 in /  0.25 mm
18:48 46.9 °F /  8.3 °C 42.6 °F /  5.9 °C 30.31 in /  1026.3 hPa SSE 1.8 mph /  2.9 km/h 3.5 mph /  5.6 km/h 85 % 0.01 in /  0.25 mm
18:53 46.9 °F /  8.3 °C 42.9 °F /  6.1 °C 30.31 in /  1026.3 hPa SSE 3.1 mph /  5 km/h 5.0 mph /  8 km/h 86 % 0.01 in /  0.25 mm
18:58 46.8 °F /  8.2 °C 42.8 °F /  6 °C 30.30 in /  1026 hPa South 5.6 mph /  9 km/h 10.4 mph /  16.7 km/h 86 % 0.02 in /  0.51 mm
19:03 46.6 °F /  8.1 °C 42.9 °F /  6.1 °C 30.29 in /  1025.6 hPa SSE 5.3 mph /  8.5 km/h 8.1 mph /  13 km/h 87 % 0.02 in /  0.51 mm
19:13 46.3 °F /  7.9 °C 42.9 °F /  6.1 °C 30.29 in /  1025.6 hPa East 5.7 mph /  9.2 km/h 5.8 mph /  9.3 km/h 88 % 0.03 in /  0.76 mm
19:18 46.3 °F /  7.9 °C 43.2 °F /  6.2 °C 30.28 in /  1025.3 hPa SSE 2.6 mph /  4.2 km/h 5.8 mph /  9.3 km/h 89 % 0.02 in /  0.51 mm
19:23 46.2 °F /  7.9 °C 43.1 °F /  6.2 °C 30.28 in /  1025.3 hPa SE 6.1 mph /  9.8 km/h 10.4 mph /  16.7 km/h 89 % 0.02 in /  0.51 mm
19:28 46.2 °F /  7.9 °C 43.1 °F /  6.2 °C 30.28 in /  1025.3 hPa South 1.7 mph /  2.7 km/h 8.1 mph /  13 km/h 89 % 0.02 in /  0.51 mm
19:33 46.2 °F /  7.9 °C 43.4 °F /  6.3 °C 30.29 in /  1025.6 hPa ESE 1.0 mph /  1.6 km/h 6.9 mph /  11.1 km/h 90 % 0.03 in /  0.76 mm
19:38 46.2 °F /  7.9 °C 43.4 °F /  6.3 °C 30.28 in /  1025.3 hPa SSE 4.1 mph /  6.6 km/h 10.4 mph /  16.7 km/h 90 % 0.03 in /  0.76 mm
19:43 46.2 °F /  7.9 °C 43.4 °F /  6.3 °C 30.29 in /  1025.6 hPa SSE 1.8 mph /  2.9 km/h 4.0 mph /  6.4 km/h 90 % 0.04 in /  1.02 mm
19:48 46.2 °F /  7.9 °C 43.4 °F /  6.3 °C 30.29 in /  1025.6 hPa SSE 4.9 mph /  7.9 km/h 6.9 mph /  11.1 km/h 90 % 0.04 in /  1.02 mm
19:53 46.1 °F /  7.8 °C 43.3 °F /  6.3 °C 30.29 in /  1025.6 hPa SSE 2.1 mph /  3.4 km/h 8.1 mph /  13 km/h 90 % 0.04 in /  1.02 mm
19:58 46.1 °F /  7.8 °C 43.3 °F /  6.3 °C 30.28 in /  1025.3 hPa SE 3.5 mph /  5.6 km/h 5.8 mph /  9.3 km/h 90 % 0.03 in /  0.76 mm
20:03 46.2 °F /  7.9 °C 43.7 °F /  6.5 °C 30.28 in /  1025.3 hPa SSE 0.8 mph /  1.3 km/h 3.5 mph /  5.6 km/h 91 % 0.03 in /  0.76 mm
20:08 46.2 °F /  7.9 °C 43.7 °F /  6.5 °C 30.28 in /  1025.3 hPa SSE 1.4 mph /  2.3 km/h 3.5 mph /  5.6 km/h 91 % 0.02 in /  0.51 mm
20:13 46.2 °F /  7.9 °C 43.7 °F /  6.5 °C 30.28 in /  1025.3 hPa South 1.4 mph /  2.3 km/h 3.5 mph /  5.6 km/h 91 % 0.02 in /  0.51 mm
20:19 46.2 °F /  7.9 °C 43.7 °F /  6.5 °C 30.28 in /  1025.3 hPa SSW 0.7 mph /  1.1 km/h 2.3 mph /  3.7 km/h 91 % 0.03 in /  0.76 mm
20:23 46.2 °F /  7.9 °C 43.7 °F /  6.5 °C 30.27 in /  1024.9 hPa South 0.4 mph /  0.6 km/h 2.3 mph /  3.7 km/h 91 % 0.03 in /  0.76 mm
20:29 46.2 °F /  7.9 °C 43.7 °F /  6.5 °C 30.26 in /  1024.6 hPa SSE 1.5 mph /  2.4 km/h 5.8 mph /  9.3 km/h 91 % 0.03 in /  0.76 mm
20:34 46.2 °F /  7.9 °C 43.7 °F /  6.5 °C 30.26 in /  1024.6 hPa SSE 2.5 mph /  4 km/h 4.6 mph /  7.4 km/h 91 % 0.02 in /  0.51 mm
20:39 46.2 °F /  7.9 °C 43.7 °F /  6.5 °C 30.27 in /  1024.9 hPa Calm     91 % 0.02 in /  0.51 mm
20:44 46.3 °F /  7.9 °C 43.8 °F /  6.6 °C 30.27 in /  1024.9 hPa Calm     91 % 0.01 in /  0.25 mm
20:49 46.3 °F /  7.9 °C 43.8 °F /  6.6 °C 30.27 in /  1024.9 hPa SSE 0.8 mph /  1.3 km/h 3.5 mph /  5.6 km/h 91 % 0.01 in /  0.25 mm
20:54 46.4 °F /  8 °C 44.2 °F /  6.8 °C 30.27 in /  1024.9 hPa SE 1.3 mph /  2.1 km/h 3.5 mph /  5.6 km/h 92 % 0.01 in /  0.25 mm
20:59 46.4 °F /  8 °C 44.2 °F /  6.8 °C 30.27 in /  1024.9 hPa SE 2.1 mph /  3.4 km/h 5.0 mph /  8 km/h 92 % 0.01 in /  0.25 mm
21:04 46.5 °F /  8.1 °C 44.3 °F /  6.8 °C 30.27 in /  1024.9 hPa SSE 1.2 mph /  1.9 km/h 2.3 mph /  3.7 km/h 92 % 0.01 in /  0.25 mm
21:09 46.5 °F /  8.1 °C 44.3 °F /  6.8 °C 30.27 in /  1024.9 hPa SE 1.4 mph /  2.3 km/h 3.5 mph /  5.6 km/h 92 % 0.01 in /  0.25 mm
21:14 46.5 °F /  8.1 °C 44.3 °F /  6.8 °C 30.27 in /  1024.9 hPa SE 0.3 mph /  0.5 km/h 4.6 mph /  7.4 km/h 92 % 0.01 in /  0.25 mm
21:19 46.6 °F /  8.1 °C 44.4 °F /  6.9 °C 30.27 in /  1024.9 hPa Calm   2.3 mph /  3.7 km/h 92 % 0.00 in /  0 mm
21:24 46.6 °F /  8.1 °C 44.4 °F /  6.9 °C 30.27 in /  1024.9 hPa Calm     92 % 0.02 in /  0.51 mm
21:29 46.7 °F /  8.2 °C 44.8 °F /  7.1 °C 30.27 in /  1024.9 hPa SE 0.4 mph /  0.6 km/h 2.3 mph /  3.7 km/h 93 % 0.04 in /  1.02 mm
21:34 46.7 °F /  8.2 °C 44.8 °F /  7.1 °C 30.27 in /  1024.9 hPa SE 1.2 mph /  1.9 km/h 3.0 mph /  4.8 km/h 93 % 0.06 in /  1.52 mm
21:39 46.7 °F /  8.2 °C 44.8 °F /  7.1 °C 30.27 in /  1024.9 hPa SE 0.8 mph /  1.3 km/h 3.0 mph /  4.8 km/h 93 % 0.07 in /  1.78 mm
21:44 46.7 °F /  8.2 °C 44.8 °F /  7.1 °C 30.26 in /  1024.6 hPa SSE 1.3 mph /  2.1 km/h 3.5 mph /  5.6 km/h 93 % 0.08 in /  2.03 mm
21:49 46.7 °F /  8.2 °C 44.8 °F /  7.1 °C 30.26 in /  1024.6 hPa SE 1.3 mph /  2.1 km/h 2.3 mph /  3.7 km/h 93 % 0.08 in /  2.03 mm
21:54 46.7 °F /  8.2 °C 44.8 °F /  7.1 °C 30.25 in /  1024.3 hPa SSE 2.0 mph /  3.2 km/h 5.8 mph /  9.3 km/h 93 % 0.08 in /  2.03 mm
21:59 46.7 °F /  8.2 °C 44.8 °F /  7.1 °C 30.24 in /  1023.9 hPa South 4.1 mph /  6.6 km/h 5.8 mph /  9.3 km/h 93 % 0.08 in /  2.03 mm
22:04 46.7 °F /  8.2 °C 44.8 °F /  7.1 °C 30.24 in /  1023.9 hPa SSW 1.2 mph /  1.9 km/h 4.6 mph /  7.4 km/h 93 % 0.08 in /  2.03 mm
22:09 46.7 °F /  8.2 °C 45.1 °F /  7.3 °C 30.24 in /  1023.9 hPa SE 0.6 mph /  1 km/h 2.3 mph /  3.7 km/h 94 % 0.08 in /  2.03 mm
22:14 46.7 °F /  8.2 °C 45.1 °F /  7.3 °C 30.23 in /  1023.6 hPa SSE 0.5 mph /  0.8 km/h 3.5 mph /  5.6 km/h 94 % 0.08 in /  2.03 mm
22:19 46.7 °F /  8.2 °C 45.1 °F /  7.3 °C 30.23 in /  1023.6 hPa SSE 0.4 mph /  0.6 km/h 2.3 mph /  3.7 km/h 94 % 0.08 in /  2.03 mm
22:24 46.8 °F /  8.2 °C 45.2 °F /  7.3 °C 30.23 in /  1023.6 hPa SE 0.5 mph /  0.8 km/h 3.5 mph /  5.6 km/h 94 % 0.06 in /  1.52 mm
22:29 46.8 °F /  8.2 °C 45.2 °F /  7.3 °C 30.23 in /  1023.6 hPa South 1.5 mph /  2.4 km/h 3.5 mph /  5.6 km/h 94 % 0.04 in /  1.02 mm
22:34 46.8 °F /  8.2 °C 45.2 °F /  7.3 °C 30.23 in /  1023.6 hPa SE 0.8 mph /  1.3 km/h 3.5 mph /  5.6 km/h 94 % 0.02 in /  0.51 mm
22:39 46.8 °F /  8.2 °C 45.2 °F /  7.3 °C 30.23 in /  1023.6 hPa SE 0.6 mph /  1 km/h 2.3 mph /  3.7 km/h 94 % 0.01 in /  0.25 mm
22:44 46.9 °F /  8.3 °C 45.3 °F /  7.4 °C 30.23 in /  1023.6 hPa SE 2.1 mph /  3.4 km/h 3.5 mph /  5.6 km/h 94 % 0.00 in /  0 mm
22:49 46.9 °F /  8.3 °C 45.3 °F /  7.4 °C 30.23 in /  1023.6 hPa SSE 1.1 mph /  1.8 km/h 3.5 mph /  5.6 km/h 94 % 0.00 in /  0 mm
22:54 46.9 °F /  8.3 °C 45.3 °F /  7.4 °C 30.23 in /  1023.6 hPa Calm   1.0 mph /  1.6 km/h 94 % 0.00 in /  0 mm
22:59 47.0 °F /  8.3 °C 45.6 °F /  7.6 °C 30.22 in /  1023.2 hPa SSE 0.2 mph /  0.3 km/h 3.5 mph /  5.6 km/h 95 % 0.00 in /  0 mm
23:04 47.1 °F /  8.4 °C 45.5 °F /  7.5 °C 30.22 in /  1023.2 hPa SSE 0.2 mph /  0.3 km/h 5.8 mph /  9.3 km/h 94 % 0.00 in /  0 mm
23:09 47.1 °F /  8.4 °C 45.7 °F /  7.6 °C 30.22 in /  1023.2 hPa Calm   1.2 mph /  1.9 km/h 95 % 0.00 in /  0 mm
23:14 47.2 °F /  8.4 °C 45.8 °F /  7.7 °C 30.21 in /  1022.9 hPa SSE 0.5 mph /  0.8 km/h 2.3 mph /  3.7 km/h 95 % 0.00 in /  0 mm
23:19 47.2 °F /  8.4 °C 45.8 °F /  7.7 °C 30.20 in /  1022.6 hPa South 0.4 mph /  0.6 km/h 2.3 mph /  3.7 km/h 95 % 0.00 in /  0 mm
23:24 47.2 °F /  8.4 °C 45.8 °F /  7.7 °C 30.20 in /  1022.6 hPa South 0.9 mph /  1.4 km/h 3.5 mph /  5.6 km/h 95 % 0.00 in /  0 mm
23:29 47.3 °F /  8.5 °C 45.9 °F /  7.7 °C 30.20 in /  1022.6 hPa South 1.0 mph /  1.6 km/h 2.3 mph /  3.7 km/h 95 % 0.00 in /  0 mm
23:34 47.3 °F /  8.5 °C 45.9 °F /  7.7 °C 30.21 in /  1022.9 hPa South 0.1 mph /  0.2 km/h 1.0 mph /  1.6 km/h 95 % 0.00 in /  0 mm
23:39 47.4 °F /  8.6 °C 46.0 °F /  7.8 °C 30.21 in /  1022.9 hPa Calm     95 % 0.00 in /  0 mm
23:44 47.4 °F /  8.6 °C 46.0 °F /  7.8 °C 30.21 in /  1022.9 hPa Calm     95 % 0.00 in /  0 mm
23:49 47.4 °F /  8.6 °C 46.0 °F /  7.8 °C 30.21 in /  1022.9 hPa South 0.2 mph /  0.3 km/h 1.2 mph /  1.9 km/h 95 % 0.00 in /  0 mm
23:54 47.5 °F /  8.6 °C 46.1 °F /  7.8 °C 30.21 in /  1022.9 hPa Calm     95 % 0.00 in /  0 mm
23:59 47.6 °F /  8.7 °C 46.2 °F /  7.9 °C 30.21 in /  1022.9 hPa Calm     95 % 0.00 in /  0 mm
Crab Meadow Weather
Compliments of Weather Underground - 3 mb

Script developed by  Jim McMurry - jmcmurry@mwt.net Adapted for the template by  Wim van der Kuil - Leuven-Template.eu

Weather Terms: Winter Storm Watch - Conditions are favorable for hazardous winter weather conditions including heavy snow, blizzard conditions, or significant accumulations of freezing rain or sleet. These watches are issued by the Weather Service Forecast Office in Upton and are usually issued 12 to 36 hours in advance of the event.